Time;durP1;ratioP1;P1;durP2;ratioP2;P2;SDS_P1;SDS_P2;PMS_P1;PMS_P2;Temp;Humidity;BMP_temperature;BMP_pressure;BME280_temperature;BME280_humidity;BME280_pressure;Samples;Min_cycle;Max_cycle;Signal;HPM_P1;HPM_P2
2023/03/03 00:00:46;;;;;;;2.25;1.30;;;;;;;2.92;82.20;102654.25;4993776;28;96509;-31
2023/03/03 00:03:15;;;;;;;3.53;2.13;;;;;;;2.91;82.24;102661.41;4997525;28;96804;-30
2023/03/03 00:05:41;;;;;;;4.20;2.70;;;;;;;2.93;82.04;102659.63;4995207;28;100897;-30
2023/03/03 00:08:07;;;;;;;2.90;2.20;;;;;;;2.93;81.84;102656.94;4995442;28;101563;-31
2023/03/03 00:10:32;;;;;;;2.60;1.50;;;;;;;2.93;81.90;102656.03;4995807;28;96586;-32
2023/03/03 00:12:59;;;;;;;2.80;2.20;;;;;;;2.87;81.27;102659.59;4997202;28;96805;-31
2023/03/03 00:15:25;;;;;;;2.72;1.75;;;;;;;2.88;82.53;102655.16;4995464;28;101143;-30
2023/03/03 00:17:52;;;;;;;2.50;1.58;;;;;;;2.86;82.75;102649.81;4995176;28;101029;-31
2023/03/03 00:20:36;;;;;;;3.30;2.17;;;;;;;2.88;82.13;102673.88;4995743;28;96530;-31
2023/03/03 00:23:08;;;;;;;1.33;1.23;;;;;;;2.89;82.56;102663.19;4995854;28;96856;-30
2023/03/03 00:25:33;;;;;;;1.83;1.52;;;;;;;2.89;82.48;102663.19;4996821;28;97479;-30
2023/03/03 00:28:12;;;;;;;3.00;2.25;;;;;;;2.84;82.68;102666.75;4996125;28;97974;-30
2023/03/03 00:30:37;;;;;;;2.58;1.33;;;;;;;2.85;82.73;102661.38;4995086;28;96621;-31
2023/03/03 00:33:18;;;;;;;3.50;1.30;;;;;;;2.84;82.18;102653.38;4997125;28;96836;-31
2023/03/03 00:35:44;;;;;;;2.37;1.60;;;;;;;2.84;82.10;102664.97;4995263;28;101311;-31
2023/03/03 00:38:13;;;;;;;3.97;1.80;;;;;;;2.82;81.91;102671.22;4996628;28;97469;-31
2023/03/03 00:40:40;;;;;;;2.20;1.50;;;;;;;2.79;82.29;102669.44;4995373;28;96853;-30
2023/03/03 00:43:35;;;;;;;5.03;2.05;;;;;;;2.77;82.82;102673.91;4995325;28;96841;-30
2023/03/03 00:46:01;;;;;;;3.40;2.20;;;;;;;2.76;82.20;102675.69;4994166;28;100816;-30
2023/03/03 00:48:46;;;;;;;8.90;3.20;;;;;;;2.73;82.07;102669.41;4996762;28;97877;-30
2023/03/03 00:51:29;;;;;;;3.00;2.08;;;;;;;2.68;83.31;102669.41;4995325;28;96842;-30
2023/03/03 00:53:55;;;;;;;3.08;1.98;;;;;;;2.65;82.86;102657.84;4994943;28;96915;-31
2023/03/03 00:56:21;;;;;;;3.95;1.98;;;;;;;2.65;82.90;102664.06;4995706;28;98040;-31
2023/03/03 00:58:47;;;;;;;7.57;2.90;;;;;;;2.66;82.71;102660.50;4995063;28;97992;-31
2023/03/03 01:01:13;;;;;;;5.57;3.60;;;;;;;2.64;82.78;102654.25;4996308;28;96468;-31
2023/03/03 01:03:38;;;;;;;5.32;3.17;;;;;;;2.63;83.06;102656.94;4995191;28;96882;-30
2023/03/03 01:06:04;;;;;;;2.50;1.90;;;;;;;2.64;83.02;102662.28;4994537;28;99180;-31
2023/03/03 01:08:29;;;;;;;9.85;2.08;;;;;;;2.66;82.96;102663.16;4995994;28;97782;-31
2023/03/03 01:10:57;;;;;;;3.90;2.60;;;;;;;2.65;83.53;102666.75;4996476;28;96591;-33
2023/03/03 01:13:27;;;;;;;5.90;3.05;;;;;;;2.61;83.13;102656.03;4994389;28;96909;-31
2023/03/03 01:15:53;;;;;;;3.60;2.33;;;;;;;2.60;83.88;102668.53;4994692;28;101463;-31
2023/03/03 01:18:18;;;;;;;4.38;2.78;;;;;;;2.59;84.08;102668.53;4995649;28;97856;-31
2023/03/03 01:20:44;;;;;;;3.10;2.33;;;;;;;2.57;84.67;102668.50;4995806;28;96649;-30
2023/03/03 01:23:09;;;;;;;7.18;3.17;;;;;;;2.60;84.10;102667.63;4994427;28;96908;-31
2023/03/03 01:25:35;;;;;;;3.20;2.50;;;;;;;2.58;84.66;102673.00;4995469;28;98370;-31
2023/03/03 01:28:01;;;;;;;2.50;1.70;;;;;;;2.57;84.19;102670.28;4994884;28;98786;-30
2023/03/03 01:30:26;;;;;;;4.13;2.40;;;;;;;2.56;84.79;102672.09;4996155;28;96482;-30
2023/03/03 01:32:52;;;;;;;2.67;2.35;;;;;;;2.52;84.52;102667.63;4995987;28;96915;-30
2023/03/03 01:35:17;;;;;;;2.15;1.70;;;;;;;2.52;84.27;102663.16;4995731;28;97894;-31
2023/03/03 01:37:43;;;;;;;5.22;2.53;;;;;;;2.53;84.27;102658.72;4995788;28;98164;-31
2023/03/03 01:40:15;;;;;;;3.97;2.00;;;;;;;2.51;84.88;102660.50;4995704;28;96522;-30
2023/03/03 01:42:40;;;;;;;;;;;;;;;2.53;84.98;102669.41;4996472;28;96537;-30
2023/03/03 01:46:04;;;;;;;5.03;3.08;;;;;;;2.49;85.94;102665.84;4995010;28;99246;-30
2023/03/03 01:48:31;;;;;;;2.85;1.55;;;;;;;2.49;85.41;102667.63;4992973;28;99259;-31
2023/03/03 01:51:01;;;;;;;2.25;1.63;;;;;;;2.49;84.92;102668.50;4993513;28;96653;-30
2023/03/03 01:53:35;;;;;;;22.63;2.28;;;;;;;2.49;84.89;102671.19;4986369;28;96864;-31
2023/03/03 01:56:04;;;;;;;3.85;2.03;;;;;;;2.48;84.38;102669.41;4993976;28;100953;-30
2023/03/03 01:58:35;;;;;;;4.53;1.65;;;;;;;2.52;84.71;102670.28;4994876;28;99735;-30
2023/03/03 02:01:08;;;;;;;2.35;1.35;;;;;;;2.47;84.65;102672.97;4994351;28;96649;-31
2023/03/03 02:03:34;;;;;;;3.65;2.10;;;;;;;2.43;85.31;102663.16;4994459;28;96867;-30
2023/03/03 02:06:04;;;;;;;1.13;1.02;;;;;;;2.44;84.29;102669.41;4995204;28;98433;-30
2023/03/03 02:08:54;;;;;;;2.35;1.65;;;;;;;2.44;84.32;102669.41;4993766;28;100563;-31
2023/03/03 02:11:21;;;;;;;3.45;2.58;;;;;;;2.41;84.15;102664.03;4993159;28;96763;-31
2023/03/03 02:13:46;;;;;;;3.63;2.00;;;;;;;2.43;84.95;102670.28;4993874;28;96820;-31
2023/03/03 02:16:12;;;;;;;2.30;1.17;;;;;;;2.42;84.69;102666.72;4994845;28;97919;-31
2023/03/03 02:18:37;;;;;;;2.83;2.42;;;;;;;2.41;83.39;102664.03;4994898;28;99792;-30
2023/03/03 02:21:09;;;;;;;2.42;1.88;;;;;;;2.40;84.86;102671.16;4995428;28;96555;-30
2023/03/03 02:23:50;;;;;;;2.55;1.58;;;;;;;2.40;85.46;102663.13;4993250;28;97070;-30
2023/03/03 02:26:26;;;;;;;1.38;1.10;;;;;;;2.39;85.20;102657.81;4992858;28;101079;-30
2023/03/03 02:28:52;;;;;;;1.52;1.42;;;;;;;2.35;85.10;102656.91;4995032;28;99241;-31
2023/03/03 02:31:21;;;;;;;3.40;1.15;;;;;;;2.40;84.43;102664.94;4993713;28;96859;-30
2023/03/03 02:33:49;;;;;;;2.70;2.10;;;;;;;2.39;83.99;102660.47;4993757;28;96861;-30
2023/03/03 02:36:25;;;;;;;4.85;1.55;;;;;;;2.36;85.17;102664.06;4992823;28;100517;-30
2023/03/03 02:38:59;;;;;;;1.98;1.02;;;;;;;2.35;84.98;102659.56;4994616;28;97854;-30
2023/03/03 02:41:50;;;;;;;2.90;2.00;;;;;;;2.34;84.72;102663.16;4993653;28;96571;-30
2023/03/03 02:44:24;;;;;;;4.03;2.17;;;;;;;2.24;83.95;102651.53;4993477;28;96791;-31
2023/03/03 02:46:52;;;;;;;1.48;0.90;;;;;;;2.20;83.42;102654.22;4993169;28;101445;-30
2023/03/03 02:49:22;;;;;;;3.88;1.70;;;;;;;2.17;83.59;102670.22;4993304;28;101036;-30
2023/03/03 02:51:47;;;;;;;3.38;1.15;;;;;;;2.10;83.92;102656.84;4993493;28;96776;-30
2023/03/03 02:54:14;;;;;;;5.57;1.75;;;;;;;2.11;84.26;102665.75;4995282;28;96814;-31
2023/03/03 02:56:40;;;;;;;1.80;1.45;;;;;;;2.12;85.67;102660.44;4993207;28;97497;-30
2023/03/03 02:59:05;;;;;;;3.78;2.53;;;;;;;2.13;83.76;102658.63;4994245;28;97922;-30
2023/03/03 03:01:35;;;;;;;1.48;1.20;;;;;;;2.18;84.25;102661.31;4994342;28;96559;-31
2023/03/03 03:04:05;;;;;;;1.48;1.10;;;;;;;2.18;85.30;102658.66;4993358;28;96776;-31
2023/03/03 03:06:30;;;;;;;4.57;1.65;;;;;;;2.19;84.75;102668.44;4994192;28;99393;-30
2023/03/03 03:08:56;;;;;;;2.95;1.60;;;;;;;2.16;84.68;102665.78;4994361;28;97849;-30
2023/03/03 03:11:21;;;;;;;1.67;1.42;;;;;;;2.17;84.99;102664.88;4994560;28;96621;-32
2023/03/03 03:13:46;;;;;;;1.88;1.50;;;;;;;2.16;84.33;102663.97;4994423;28;96757;-31
2023/03/03 03:16:12;;;;;;;2.42;1.92;;;;;;;2.16;84.98;102668.44;4994188;28;97823;-31
2023/03/03 03:18:37;;;;;;;4.03;2.58;;;;;;;2.19;85.29;102663.09;4994678;28;97386;-31
2023/03/03 03:21:08;;;;;;;2.90;1.65;;;;;;;2.20;85.83;102667.56;4994428;28;96559;-30
2023/03/03 03:23:35;;;;;;;1.75;1.23;;;;;;;2.15;85.59;102667.56;4992914;28;96802;-30
2023/03/03 03:26:00;;;;;;;5.38;2.55;;;;;;;2.17;85.73;102670.22;4991816;28;101042;-30
2023/03/03 03:28:25;;;;;;;4.43;2.08;;;;;;;2.18;86.89;102677.38;4993733;28;98071;-30
2023/03/03 03:30:51;;;;;;;3.50;2.08;;;;;;;2.15;85.96;102670.22;4994376;28;96503;-30
2023/03/03 03:33:16;;;;;;;2.95;1.85;;;;;;;2.12;86.73;102668.44;4994343;28;96773;-30
2023/03/03 03:35:44;;;;;;;5.32;1.60;;;;;;;2.16;87.02;102674.69;4995098;28;97975;-31
2023/03/03 03:38:11;;;;;;;4.22;2.15;;;;;;;2.18;86.41;102677.38;4996455;28;100554;-30
2023/03/03 03:40:36;;;;;;;2.70;1.58;;;;;;;2.18;87.36;102672.91;4997593;28;96655;-30
2023/03/03 03:43:02;;;;;;;1.80;0.82;;;;;;;2.20;86.42;102672.91;4998041;28;96754;-30
2023/03/03 03:45:27;;;;;;;3.85;2.30;;;;;;;2.20;86.08;102683.63;4997465;28;97890;-30
2023/03/03 03:47:52;;;;;;;2.45;1.85;;;;;;;2.17;86.11;102684.50;4997456;28;97270;-30
2023/03/03 03:50:18;;;;;;;7.63;1.70;;;;;;;2.12;85.82;102684.47;4997079;28;96587;-30
2023/03/03 03:52:43;;;;;;;5.72;2.60;;;;;;;2.19;85.97;102687.16;4997342;28;96759;-30
2023/03/03 03:55:09;;;;;;;1.77;1.25;;;;;;;2.15;86.39;102686.28;4996988;28;99991;-30
2023/03/03 03:57:35;;;;;;;4.20;2.75;;;;;;;2.12;86.18;102684.47;4995677;28;100897;-31
2023/03/03 04:00:00;;;;;;;4.43;2.13;;;;;;;2.11;87.20;102682.69;4996430;28;96531;-30
2023/03/03 04:02:26;;;;;;;4.55;2.97;;;;;;;2.14;86.79;102681.78;4997327;28;96778;-30
2023/03/03 04:04:51;;;;;;;4.63;2.67;;;;;;;2.13;87.07;102688.03;4997186;28;97923;-31
2023/03/03 04:07:16;;;;;;;2.80;2.03;;;;;;;2.09;87.00;102689.78;4997572;28;97262;-30
2023/03/03 04:09:42;;;;;;;3.92;2.45;;;;;;;2.04;86.78;102691.56;4997428;28;96561;-30
2023/03/03 04:12:07;;;;;;;4.13;2.63;;;;;;;1.98;86.60;102694.22;4997354;28;96791;-30
2023/03/03 04:14:32;;;;;;;5.72;2.47;;;;;;;1.96;86.87;102690.66;4996880;28;97226;-30
2023/03/03 04:16:58;;;;;;;2.90;2.13;;;;;;;1.94;86.83;102700.44;4996369;28;99583;-30
2023/03/03 04:19:23;;;;;;;4.20;2.08;;;;;;;1.90;87.97;102694.19;4997311;28;96438;-31
2023/03/03 04:21:49;;;;;;;4.90;2.42;;;;;;;1.96;87.32;102689.78;4997370;28;96767;-30
2023/03/03 04:24:15;;;;;;;3.78;2.00;;;;;;;1.97;88.59;102696.88;4996520;28;97439;-31
2023/03/03 04:26:40;;;;;;;4.57;2.80;;;;;;;1.99;87.81;102698.69;4994821;28;99740;-31
2023/03/03 04:29:06;;;;;;;3.22;1.63;;;;;;;1.97;87.69;102702.22;4996959;28;96492;-31
2023/03/03 04:31:31;;;;;;;3.70;2.15;;;;;;;1.96;88.43;102703.13;4997323;28;96777;-30
2023/03/03 04:33:56;;;;;;;3.75;2.17;;;;;;;1.97;87.31;102704.91;4997031;28;97383;-31
2023/03/03 04:36:22;;;;;;;2.88;1.60;;;;;;;1.92;88.50;102697.75;4996790;28;97421;-30
2023/03/03 04:38:48;;;;;;;2.55;1.95;;;;;;;1.98;88.33;102704.00;4996357;28;96656;-30
2023/03/03 04:41:14;;;;;;;2.30;1.77;;;;;;;1.96;87.95;102709.38;4996733;28;96774;-32
2023/03/03 04:43:39;;;;;;;2.67;2.20;;;;;;;1.97;87.49;102703.13;4996588;28;98011;-32
2023/03/03 04:46:04;;;;;;;2.28;1.50;;;;;;;2.01;87.70;102712.06;4996430;28;97863;-31
2023/03/03 04:48:30;;;;;;;7.18;1.98;;;;;;;1.93;87.24;102703.97;4995527;28;97770;-30
2023/03/03 04:50:55;;;;;;;5.18;2.58;;;;;;;1.92;88.10;102713.78;4996658;28;96756;-30
2023/03/03 04:53:21;;;;;;;2.03;1.38;;;;;;;1.90;88.19;102704.88;4996498;28;97324;-30
2023/03/03 04:55:49;;;;;;;5.70;3.17;;;;;;;1.92;88.57;102705.75;4996698;28;98001;-30
2023/03/03 04:58:14;;;;;;;2.92;2.08;;;;;;;1.96;88.22;102712.03;4995107;28;96629;-30
2023/03/03 05:00:40;;;;;;;4.47;1.75;;;;;;;1.92;88.19;102696.88;4996622;28;96798;-30
2023/03/03 05:03:06;;;;;;;2.80;1.92;;;;;;;1.97;88.24;102704.91;4995871;28;98027;-31
2023/03/03 05:05:31;;;;;;;4.32;2.17;;;;;;;1.96;87.99;102709.38;4996094;28;97559;-32
2023/03/03 05:07:56;;;;;;;2.50;2.03;;;;;;;1.94;87.79;102711.13;4996240;28;96518;-30
2023/03/03 05:10:22;;;;;;;3.13;2.22;;;;;;;1.99;87.22;102717.38;4996248;28;96840;-30
2023/03/03 05:12:47;;;;;;;4.20;1.00;;;;;;;1.96;87.79;102720.06;4995882;28;99449;-30
2023/03/03 05:15:12;;;;;;;9.10;2.85;;;;;;;1.99;88.16;102719.16;4996207;28;97742;-31
2023/03/03 05:17:38;;;;;;;3.83;2.33;;;;;;;2.02;87.92;102716.50;4996124;28;96926;-30
2023/03/03 05:20:04;;;;;;;2.75;1.50;;;;;;;2.04;88.11;102720.06;4996629;28;96757;-30
2023/03/03 05:22:30;;;;;;;3.90;2.30;;;;;;;2.02;88.12;102722.72;4994338;28;101718;-30
2023/03/03 05:24:56;;;;;;;3.85;2.15;;;;;;;2.04;87.88;102717.41;4994132;28;97846;-31
2023/03/03 05:27:22;;;;;;;6.90;2.03;;;;;;;2.07;88.64;102715.66;4993467;28;96830;-30
2023/03/03 05:29:47;;;;;;;3.70;2.50;;;;;;;2.04;88.28;102712.06;4994502;28;96837;-30
2023/03/03 05:32:12;;;;;;;3.42;1.45;;;;;;;2.10;88.71;102718.31;4995850;28;98001;-30
2023/03/03 05:34:38;;;;;;;2.08;1.45;;;;;;;2.06;88.01;102716.53;4995854;28;97812;-31
2023/03/03 05:37:05;;;;;;;1.77;1.45;;;;;;;2.07;88.28;102715.66;4996013;28;96520;-31
2023/03/03 05:39:31;;;;;;;3.40;2.15;;;;;;;2.06;88.91;102716.53;4994438;28;96945;-31
2023/03/03 05:41:59;;;;;;;2.60;1.88;;;;;;;2.09;88.42;102723.66;4994138;28;101000;-30
2023/03/03 05:44:24;;;;;;;5.10;2.05;;;;;;;2.05;88.44;102722.78;4995771;28;99062;-31
2023/03/03 05:46:50;;;;;;;1.77;1.05;;;;;;;2.10;89.03;102726.34;4995883;28;96586;-30
2023/03/03 05:49:15;;;;;;;3.60;2.40;;;;;;;2.10;87.67;102717.44;4995853;28;96745;-33
2023/03/03 05:51:40;;;;;;;2.35;1.85;;;;;;;2.09;88.11;102716.53;4995054;28;97419;-30
2023/03/03 05:54:05;;;;;;;6.30;2.38;;;;;;;2.14;88.10;102719.22;4995444;28;97286;-32
2023/03/03 05:56:31;;;;;;;4.07;1.88;;;;;;;2.18;88.44;102722.81;4995420;28;96664;-30
2023/03/03 05:58:56;;;;;;;3.15;1.25;;;;;;;2.18;88.57;102718.34;4995488;28;96792;-31
2023/03/03 06:01:21;;;;;;;2.42;1.58;;;;;;;2.21;88.63;102722.81;4995369;28;97937;-31
2023/03/03 06:03:47;;;;;;;2.50;1.70;;;;;;;2.25;89.29;102728.19;4995331;28;98188;-30
2023/03/03 06:06:13;;;;;;;1.92;1.55;;;;;;;2.21;89.76;102722.81;4995419;28;96530;-30
2023/03/03 06:08:38;;;;;;;3.83;1.95;;;;;;;2.22;88.22;102724.63;4995815;28;96668;-31
2023/03/03 06:11:04;;;;;;;4.22;1.50;;;;;;;2.21;88.41;102720.13;4994078;28;96789;-31
2023/03/03 06:13:29;;;;;;;3.78;1.95;;;;;;;2.18;89.13;102721.03;4995340;28;97660;-30
2023/03/03 06:15:54;;;;;;;3.67;1.92;;;;;;;2.17;88.70;102718.31;4995038;28;96550;-31
2023/03/03 06:18:20;;;;;;;3.95;1.65;;;;;;;2.19;87.95;102733.50;4995358;28;96837;-31
2023/03/03 06:20:50;;;;;;;4.63;2.33;;;;;;;2.18;88.40;102730.81;4995064;28;97845;-30
2023/03/03 06:23:15;;;;;;;6.85;2.72;;;;;;;2.19;88.75;102741.50;4993288;28;100599;-30
2023/03/03 06:25:41;;;;;;;8.00;3.22;;;;;;;2.17;89.01;102737.97;4994680;28;96866;-30
2023/03/03 06:28:07;;;;;;;3.60;1.80;;;;;;;2.14;89.90;102735.25;4994732;28;96803;-31
2023/03/03 06:30:32;;;;;;;3.47;1.77;;;;;;;2.19;88.95;102737.94;4994640;28;98903;-30
2023/03/03 06:32:57;;;;;;;3.55;1.83;;;;;;;2.20;89.58;102740.63;4995294;28;97800;-30
2023/03/03 06:35:23;;;;;;;1.90;1.60;;;;;;;2.19;89.84;102744.19;4994816;28;96633;-30
2023/03/03 06:37:49;;;;;;;8.02;2.28;;;;;;;2.21;89.41;102742.41;4994797;28;96797;-30
2023/03/03 06:40:15;;;;;;;3.95;2.05;;;;;;;2.18;89.58;102739.72;4994047;28;99777;-30
2023/03/03 06:42:40;;;;;;;3.05;2.22;;;;;;;2.23;89.22;102750.44;4993290;28;100895;-30
2023/03/03 06:45:06;;;;;;;5.90;2.63;;;;;;;2.25;89.54;102756.69;4994885;28;96715;-30
2023/03/03 06:47:32;;;;;;;2.75;2.17;;;;;;;2.22;90.16;102757.59;4995003;28;97765;-31
2023/03/03 06:49:58;;;;;;;4.55;2.15;;;;;;;2.28;89.69;102762.94;4993039;28;100917;-30
2023/03/03 06:52:25;;;;;;;3.47;2.53;;;;;;;2.25;88.89;102759.38;4994445;28;97824;-30
2023/03/03 06:54:57;;;;;;;1.92;1.52;;;;;;;2.26;89.28;102772.72;4993473;28;96686;-31
2023/03/03 06:57:27;;;;;;;6.80;2.90;;;;;;;2.26;88.65;102771.84;4993790;28;97007;-30
2023/03/03 06:59:56;;;;;;;4.20;2.85;;;;;;;2.24;89.53;102773.59;4993122;28;100316;-31
2023/03/03 07:02:22;;;;;;;6.57;2.53;;;;;;;2.23;89.39;102778.06;4994285;28;97272;-29
2023/03/03 07:04:47;;;;;;;3.95;1.80;;;;;;;2.23;89.41;102777.19;4993979;28;96683;-31
2023/03/03 07:07:20;;;;;;;4.97;2.05;;;;;;;2.25;90.33;102775.41;4994477;28;96820;-31
2023/03/03 07:09:47;;;;;;;1.38;1.00;;;;;;;2.25;90.34;102781.66;4993045;28;101002;-30
2023/03/03 07:12:18;;;;;;;5.88;2.70;;;;;;;2.31;89.85;102796.81;4996098;28;101122;-30
2023/03/03 07:14:46;;;;;;;3.13;2.13;;;;;;;2.31;90.11;102796.81;4996924;28;96711;-31
2023/03/03 07:17:19;;;;;;;3.63;2.10;;;;;;;2.32;90.32;102794.16;4996550;28;96789;-31
2023/03/03 07:19:46;;;;;;;2.67;2.10;;;;;;;2.32;90.02;102793.25;4996401;28;100884;-30
2023/03/03 07:22:20;;;;;;;1.02;0.85;;;;;;;2.34;90.51;102799.53;4996698;28;100754;-30
2023/03/03 07:24:49;;;;;;;3.42;2.13;;;;;;;2.33;90.11;102790.56;4996355;28;96797;-31
2023/03/03 07:27:29;;;;;;;3.88;2.63;;;;;;;2.36;89.66;102791.47;4996138;28;96688;-30
2023/03/03 07:30:19;;;;;;;2.97;1.67;;;;;;;2.36;90.08;102797.75;4995564;28;100851;-31
2023/03/03 07:32:45;;;;;;;1.35;0.90;;;;;;;2.38;89.90;102787.03;4996157;28;101200;-31
2023/03/03 07:35:35;;;;;;;0.57;0.43;;;;;;;2.40;90.55;102807.53;4996162;28;96610;-30
2023/03/03 07:38:01;;;;;;;1.30;0.65;;;;;;;2.37;90.40;102796.84;4996595;28;96681;-31
2023/03/03 07:40:35;;;;;;;3.60;3.00;;;;;;;2.40;90.31;102802.19;4996606;28;98781;-32
2023/03/03 07:43:15;;;;;;;2.45;1.40;;;;;;;2.43;89.97;102801.31;4995998;28;100904;-31
2023/03/03 07:45:42;;;;;;;4.90;1.77;;;;;;;2.41;90.50;102800.41;4997898;28;96633;-30
2023/03/03 07:48:23;;;;;;;1.92;1.67;;;;;;;2.42;89.55;102804.88;4996535;28;96851;-31
2023/03/03 07:50:49;;;;;;;1.53;1.27;;;;;;;2.45;89.97;102811.13;4997174;28;99757;-32
2023/03/03 07:53:33;;;;;;;2.85;1.88;;;;;;;2.46;89.52;102818.28;4997245;28;97795;-31
2023/03/03 07:55:59;;;;;;;2.20;1.70;;;;;;;2.44;89.95;102811.16;4996853;28;96716;-30
2023/03/03 07:58:38;;;;;;;2.72;1.50;;;;;;;2.47;89.75;102816.50;4996223;28;96806;-31
2023/03/03 08:01:38;;;;;;;2.85;1.42;;;;;;;2.47;89.30;102821.84;4995556;28;101083;-30
2023/03/03 08:04:12;;;;;;;2.00;1.33;;;;;;;2.44;89.92;102819.16;4997080;28;98739;-30
2023/03/03 08:06:47;;;;;;;7.38;2.13;;;;;;;2.46;89.62;102823.63;4995906;28;96636;-30
2023/03/03 08:09:26;;;;;;;1.58;0.98;;;;;;;2.55;89.94;102833.44;4995757;28;97969;-30
2023/03/03 08:12:06;;;;;;;3.22;1.35;;;;;;;2.55;90.08;102839.72;4996866;28;98875;-30
2023/03/03 08:14:37;;;;;;;3.00;2.03;;;;;;;2.56;89.50;102835.25;4997416;28;97871;-31
2023/03/03 08:17:16;;;;;;;2.38;1.88;;;;;;;2.60;89.57;102836.16;4995870;28;97041;-30
2023/03/03 08:19:41;;;;;;;2.33;1.55;;;;;;;2.61;90.30;102838.84;4995685;28;96764;-30
2023/03/03 08:22:37;;;;;;;4.70;2.17;;;;;;;2.65;90.77;102847.78;4996275;28;97424;-30
2023/03/03 08:25:03;;;;;;;5.28;2.40;;;;;;;2.65;89.79;102854.03;4994536;28;101236;-30
2023/03/03 08:27:28;;;;;;;1.17;1.08;;;;;;;2.63;90.26;102853.13;4995234;28;97191;-30
2023/03/03 08:29:54;;;;;;;3.40;1.90;;;;;;;2.62;89.04;102853.09;4997185;28;96768;-31
2023/03/03 08:32:20;;;;;;;1.15;1.00;;;;;;;2.66;89.87;102863.81;4996519;28;98981;-30
2023/03/03 08:34:45;;;;;;;3.22;1.92;;;;;;;2.67;89.75;102859.34;4996934;28;97515;-30
2023/03/03 08:37:11;;;;;;;1.70;1.13;;;;;;;2.66;89.25;102862.94;4997128;28;96558;-30
2023/03/03 08:39:36;;;;;;;1.77;1.55;;;;;;;2.72;89.63;102862.97;4997429;28;96847;-30
2023/03/03 08:42:01;;;;;;;6.82;2.55;;;;;;;2.69;90.04;102857.59;4996348;28;99074;-30
2023/03/03 08:44:27;;;;;;;3.45;2.17;;;;;;;2.78;89.76;102867.44;4996553;28;97478;-33
2023/03/03 08:46:52;;;;;;;3.25;2.03;;;;;;;2.81;89.66;102857.63;4996170;28;96712;-29
2023/03/03 08:49:18;;;;;;;4.93;2.42;;;;;;;2.85;89.53;102853.19;4996576;28;96827;-30
2023/03/03 08:51:43;;;;;;;1.52;1.30;;;;;;;2.84;90.43;102863.00;4996770;28;97409;-31
2023/03/03 08:54:08;;;;;;;2.33;1.65;;;;;;;2.88;90.24;102863.91;4994993;28;99386;-30
2023/03/03 08:56:34;;;;;;;5.32;1.60;;;;;;;2.95;89.86;102865.69;4996538;28;96729;-31
2023/03/03 08:58:59;;;;;;;4.25;2.20;;;;;;;3.01;89.04;102870.19;4996696;28;96838;-30
2023/03/03 09:01:25;;;;;;;3.67;0.75;;;;;;;3.07;88.97;102873.75;4996081;28;97929;-30
2023/03/03 09:03:50;;;;;;;1.58;1.25;;;;;;;3.10;89.05;102867.50;4996867;28;97269;-32
2023/03/03 09:06:15;;;;;;;3.10;1.58;;;;;;;3.13;89.45;102870.22;4996546;28;96648;-30
2023/03/03 09:08:41;;;;;;;2.40;1.38;;;;;;;3.17;88.89;102866.63;4996507;28;96723;-32
2023/03/03 09:11:12;;;;;;;5.13;1.63;;;;;;;3.22;88.63;102861.28;4995951;28;97403;-33
2023/03/03 09:13:37;;;;;;;2.67;1.92;;;;;;;3.28;88.63;102866.66;4994641;28;100483;-30
2023/03/03 09:16:11;;;;;;;3.10;1.92;;;;;;;3.32;88.34;102853.28;4996165;28;96592;-30
2023/03/03 09:18:38;;;;;;;1.35;1.08;;;;;;;3.49;88.06;102858.66;4994923;28;96710;-31
2023/03/03 09:21:21;;;;;;;1.08;0.88;;;;;;;3.54;87.30;102845.25;4994553;28;100767;-32
2023/03/03 09:23:57;;;;;;;0.82;0.47;;;;;;;3.69;87.54;102861.31;4994454;28;99033;-30
2023/03/03 09:26:46;;;;;;;2.58;1.73;;;;;;;3.74;87.07;102864.91;4994674;28;96574;-32
2023/03/03 09:29:14;;;;;;;2.35;1.38;;;;;;;3.73;87.70;102868.47;4995189;28;96784;-31
2023/03/03 09:31:51;;;;;;;3.17;2.40;;;;;;;3.85;87.56;102872.03;4995969;28;97985;-30
2023/03/03 09:34:49;;;;;;;2.60;1.40;;;;;;;3.97;86.96;102866.66;4993595;28;101230;-30
2023/03/03 09:37:35;;;;;;;2.63;1.60;;;;;;;4.32;86.62;102865.69;4993477;28;96807;-30
2023/03/03 09:40:25;;;;;;;1.58;1.33;;;;;;;4.68;85.59;102870.91;4994476;28;96685;-31
2023/03/03 09:43:22;;;;;;;5.03;1.50;;;;;;;4.87;85.07;102866.34;4995470;28;98866;-31
2023/03/03 09:46:08;;;;;;;1.90;1.17;;;;;;;5.03;84.84;102868.94;4995442;28;97873;-30
2023/03/03 09:49:00;;;;;;;4.18;2.45;;;;;;;5.29;83.93;102866.09;4994410;28;96516;-30
2023/03/03 09:51:34;;;;;;;4.35;2.72;;;;;;;5.76;82.62;102867.50;4994335;28;96734;-30
2023/03/03 09:54:12;;;;;;;2.15;1.23;;;;;;;6.22;81.41;102866.19;4995475;28;97981;-32
2023/03/03 09:56:50;;;;;;;3.30;1.50;;;;;;;6.74;80.31;102861.06;4995749;28;97275;-30
2023/03/03 09:59:25;;;;;;;2.70;1.65;;;;;;;7.12;78.75;102869.56;4995983;28;96721;-30
2023/03/03 10:02:27;;;;;;;2.08;1.17;;;;;;;7.35;76.36;102859.31;4993965;28;96701;-30
2023/03/03 10:05:12;;;;;;;3.60;2.17;;;;;;;7.65;76.07;102863.31;4994682;28;99846;-30
2023/03/03 10:07:52;;;;;;;1.38;1.15;;;;;;;7.93;74.72;102862.81;4993873;28;100740;-30
2023/03/03 10:10:59;;;;;;;1.80;1.08;;;;;;;8.25;73.52;102862.25;4995423;28;96646;-30
2023/03/03 10:13:49;;;;;;;3.17;0.98;;;;;;;8.49;73.57;102851.91;4994113;28;96706;-31
2023/03/03 10:16:42;;;;;;;1.77;1.30;;;;;;;8.51;72.07;102850.06;4995097;28;98630;-30
2023/03/03 10:19:33;;;;;;;2.90;1.38;;;;;;;8.66;71.86;102855.13;4993842;28;101222;-32
2023/03/03 10:22:16;;;;;;;3.33;1.73;;;;;;;8.95;71.93;102853.59;4995213;28;96513;-30
2023/03/03 10:25:07;;;;;;;2.50;1.48;;;;;;;9.30;70.54;102847.38;4994091;28;96951;-31
2023/03/03 10:27:45;;;;;;;2.72;1.45;;;;;;;9.50;70.26;102854.13;4993092;28;97399;-30
2023/03/03 10:30:45;;;;;;;3.90;1.52;;;;;;;9.67;68.66;102851.88;4995062;28;97814;-30
2023/03/03 10:33:32;;;;;;;3.13;1.83;;;;;;;9.87;68.30;102850.50;4994793;28;96707;-31
2023/03/03 10:36:07;;;;;;;2.42;1.35;;;;;;;9.90;68.02;102847.69;4993822;28;96786;-30
2023/03/03 10:38:44;;;;;;;2.03;1.17;;;;;;;10.18;68.52;102848.72;4993363;28;100675;-31
2023/03/03 10:41:24;;;;;;;1.60;1.20;;;;;;;10.45;68.73;102848.03;4993450;28;100747;-30
2023/03/03 10:44:11;;;;;;;3.03;1.70;;;;;;;10.44;68.00;102846.22;4993733;28;96671;-31
2023/03/03 10:47:03;;;;;;;5.43;1.48;;;;;;;10.11;68.66;102851.66;4993795;28;96646;-31
2023/03/03 10:50:03;;;;;;;1.65;1.10;;;;;;;9.80;68.91;102852.47;4993577;28;97968;-31
2023/03/03 10:52:36;;;;;;;1.70;0.98;;;;;;;9.87;68.91;102847.78;4993468;28;100762;-31
2023/03/03 10:55:33;;;;;;;3.67;1.38;;;;;;;10.15;66.88;102862.34;4994768;28;96669;-31
2023/03/03 10:58:04;;;;;;;1.75;0.88;;;;;;;10.42;66.39;102857.13;4977753;28;96649;-30
2023/03/03 11:00:36;;;;;;;1.55;1.00;;;;;;;10.63;66.37;102861.03;4994266;28;97989;-30
2023/03/03 11:03:23;;;;;;;2.55;1.42;;;;;;;10.85;65.67;102855.84;4993199;28;101027;-30
2023/03/03 11:06:09;;;;;;;2.53;1.30;;;;;;;10.83;65.43;102849.59;4993385;28;96777;-30
2023/03/03 11:08:51;;;;;;;2.42;1.27;;;;;;;10.56;67.10;102846.78;4993083;28;96867;-30
2023/03/03 11:11:19;;;;;;;;;;;;;;;10.58;64.64;102844.91;4994708;28;100121;-30
2023/03/03 11:13:53;;;;;;;1.48;1.05;;;;;;;10.68;65.24;102850.03;4993098;28;100593;-30
2023/03/03 11:16:37;;;;;;;3.15;1.33;;;;;;;10.87;63.62;102845.84;4994196;28;96609;-32
2023/03/03 11:19:34;;;;;;;3.05;1.35;;;;;;;11.21;65.16;102842.09;4994672;28;96668;-31
2023/03/03 11:22:21;;;;;;;2.05;1.00;;;;;;;11.40;63.35;102835.13;4992864;28;100854;-31
2023/03/03 11:25:15;;;;;;;1.63;0.95;;;;;;;11.67;63.52;102835.13;4994254;28;98148;-30
2023/03/03 11:28:01;;;;;;;1.63;1.00;;;;;;;11.72;62.44;102835.84;4993582;28;96947;-31
2023/03/03 11:30:33;;;;;;;2.50;1.23;;;;;;;11.77;60.59;102846.53;4993170;28;96539;-30
2023/03/03 11:33:13;;;;;;;2.20;1.20;;;;;;;11.90;60.59;102842.50;4992808;28;101025;-30
2023/03/03 11:36:12;;;;;;;1.48;0.85;;;;;;;11.77;60.78;102836.56;4993874;28;97805;-30
2023/03/03 11:38:37;;;;;;;2.22;0.82;;;;;;;11.47;60.18;102835.81;4992916;28;96589;-30
2023/03/03 11:41:12;;;;;;;1.63;0.95;;;;;;;11.41;62.45;102838.72;4994386;28;96802;-31
2023/03/03 11:43:42;;;;;;;2.55;1.00;;;;;;;11.02;59.91;102831.81;4994038;28;98027;-30
2023/03/03 11:46:14;;;;;;;1.90;0.90;;;;;;;11.30;61.92;102833.66;4992768;28;99055;-31
2023/03/03 11:48:54;;;;;;;0.65;0.57;;;;;;;11.56;59.39;102837.28;4992790;28;96652;-31
2023/03/03 11:51:46;;;;;;;1.00;0.70;;;;;;;11.72;58.39;102832.25;4994174;28;96653;-31